Maria S. Merian — DBBT — position and weather

sailwx.info

Track history (hours):
 
Tides and Currents Weather Stations Pressure Air Temp Water Temp Dewpoint Dewpoint Depression Visibility Wind Speed Wind Dir Waves Ship Positions

Oceanographic research ship Maria S. Merian (Germany)

Last reported at 2020-Jul-06 16:41 UTC. Time now 2020-Jul-09 20:46 UTC.
Position N 79°00' E 007°27'.

Length 94.8 m; beam 19.2 m; draft 6.5 m.

Type: Other ship. MMSI: 211753000.

Date/timePositionNaut miles runAvg speedWind from/ knotsBaromVisibWave heightAir tempDewpointWater temp
2020-Jul-06 16:41N 79°00' E 007°27'3 0.1
2020-Jul-04 19:58N 78°60' E 007°40'0 0.0
2020-Jul-04 19:29N 78°60' E 007°40'3 3.5
2020-Jul-04 18:29N 79°00' E 007°58'4 0.7
2020-Jul-04 12:30N 78°60' E 008°20'0 0.0
2020-Jul-04 11:30N 78°60' E 008°20'3 0.3
2020-Jul-04 03:00N 79°01' E 008°33'0 0.0
2020-Jul-04 01:59N 79°01' E 008°33'1 0.3
2020-Jul-03 21:30N 79°00' E 008°40'4 7.7
2020-Jul-03 21:00N 78°60' E 009°00'0 0.2
2020-Jul-03 18:00N 79°00' E 009°03'6 3.8
2020-Jul-03 16:29N 79°00' E 008°33'0 0.6
2020-Jul-03 16:00N 78°60' E 008°33'0 0.9
2020-Jul-03 15:30N 79°00' E 008°32'7 6.6
2020-Jul-03 14:30N 79°01' E 007°57'0 0.9
2020-Jul-03 13:59N 79°01' E 007°58'1 1.4
2020-Jul-03 13:29N 78°60' E 007°60'  
2020-Jun-28 11:57N 63°60' E 004°26'5211.8
2020-Jun-28 07:31N 63°08' E 004°17'3011.9
2020-Jun-28 05:00N 62°38' E 004°11'3112.4
2020-Jun-28 02:30N 62°07' E 004°11'1313.0
2020-Jun-28 01:30N 61°54' E 004°11'3614.2
2020-Jun-27 23:00N 61°18' E 004°11'714.5
2020-Jun-27 22:30N 61°11' E 004°11'4113.6
2020-Jun-27 19:30N 60°30' E 004°11'613.0
2020-Jun-27 19:00N 60°24' E 004°11'3213.0
2020-Jun-27 16:30N 59°51' E 004°11'3313.3
2020-Jun-27 14:00N 59°18' E 004°11'713.5
2020-Jun-27 13:30N 59°11' E 004°11'5814.4
2020-Jun-27 09:30N 58°14' E 004°31'2013.5
2020-Jun-27 08:00N 57°55' E 004°39'612.9
2020-Jun-27 07:30N 57°48' E 004°42'2012.9
2020-Jun-27 06:00N 57°29' E 004°50'4412.7
2020-Jun-27 02:30N 56°46' E 005°09'612.8
2020-Jun-27 02:01N 56°40' E 005°11'  
Track history (hours):
 
Tides and Currents Weather Stations Pressure Air Temp Water Temp Dewpoint Dewpoint Depression Visibility Wind Speed Wind Dir Waves Ship Positions

Oceanographic research ship Maria S. Merian (Germany)

Last reported at 2020-Jul-06 16:41 UTC. Time now 2020-Jul-09 20:46 UTC.
Position N 79°00' E 007°27'.

Length 94.8 m; beam 19.2 m; draft 6.5 m.

Type: Other ship. MMSI: 211753000.

Date/timePositionNaut miles runAvg speedWind from/ knotsBaromVisibWave heightAir tempDewpointWater temp
2020-Jul-06 16:41N 79°00' E 007°27'3 0.1
2020-Jul-04 19:58N 78°60' E 007°40'0 0.0
2020-Jul-04 19:29N 78°60' E 007°40'3 3.5
2020-Jul-04 18:29N 79°00' E 007°58'4 0.7
2020-Jul-04 12:30N 78°60' E 008°20'0 0.0
2020-Jul-04 11:30N 78°60' E 008°20'3 0.3
2020-Jul-04 03:00N 79°01' E 008°33'0 0.0
2020-Jul-04 01:59N 79°01' E 008°33'1 0.3
2020-Jul-03 21:30N 79°00' E 008°40'4 7.7
2020-Jul-03 21:00N 78°60' E 009°00'0 0.2
2020-Jul-03 18:00N 79°00' E 009°03'6 3.8
2020-Jul-03 16:29N 79°00' E 008°33'0 0.6
2020-Jul-03 16:00N 78°60' E 008°33'0 0.9
2020-Jul-03 15:30N 79°00' E 008°32'7 6.6
2020-Jul-03 14:30N 79°01' E 007°57'0 0.9
2020-Jul-03 13:59N 79°01' E 007°58'1 1.4
2020-Jul-03 13:29N 78°60' E 007°60'  
2020-Jun-28 11:57N 63°60' E 004°26'5211.8
2020-Jun-28 07:31N 63°08' E 004°17'3011.9
2020-Jun-28 05:00N 62°38' E 004°11'3112.4
2020-Jun-28 02:30N 62°07' E 004°11'1313.0
2020-Jun-28 01:30N 61°54' E 004°11'3614.2
2020-Jun-27 23:00N 61°18' E 004°11'714.5
2020-Jun-27 22:30N 61°11' E 004°11'4113.6
2020-Jun-27 19:30N 60°30' E 004°11'613.0
2020-Jun-27 19:00N 60°24' E 004°11'3213.0
2020-Jun-27 16:30N 59°51' E 004°11'3313.3
2020-Jun-27 14:00N 59°18' E 004°11'713.5
2020-Jun-27 13:30N 59°11' E 004°11'5814.4
2020-Jun-27 09:30N 58°14' E 004°31'2013.5
2020-Jun-27 08:00N 57°55' E 004°39'612.9
2020-Jun-27 07:30N 57°48' E 004°42'2012.9
2020-Jun-27 06:00N 57°29' E 004°50'4412.7
2020-Jun-27 02:30N 56°46' E 005°09'612.8
2020-Jun-27 02:01N 56°40' E 005°11'  

Dump ship's entire track history